Sahagun, Spain
Current Conditions -  °F | °C
As of 9:00 PM on Thursday 25 Dec 2014 (Local Time) from LELN Reporting Station
Clear Clear  
Wind Chill: 33°   Ceiling: Unl
Heat Index: 37°   Visibility: 6mi
Dew Point: 34°   Wind: 6mph
Humidity: 87%   Direction: 320°NW
Pressure: 30.53"   Gusts: NA
Location:  42.37°N, 5.03°W
Report Text: LELN 252000Z 32005KT CAVOK 03/01 Q1034
Loading
Personal Weather Stations






























Interactive Weather Map New forecast layout! Learn more

10-Day Weather Forecast

Advertisements
Track Severe Weather on mobile